Etusivu
METAR-TAF:

METAR-TAF

Lentoasemat :

Tšita, Venäjä

Leveyspiiri: 52-05N, Pituuspiiri: 113-29E, korkeus merenpinnasta: 685 m

Tämänhetkinen sää

Tämä raportti tehtiin 32 minuuttia sitten, kello 11.30 UTC
Tuuli 6 kn idästä/kaakosta
Lämpötila 24°C
Kosteus 29%
Ilmanpaine 1009 hPa
Näkyvyys 10 km tai enemmän
Muutamia pilviä 5000 ft:n korkeudessa, Cumulonimbus.

METAR: UIAA 221130Z 12003MPS 9999 FEW050CB 24/05 Q1009 R29/CLRD70 NOSIG RMK QFE699/0932

Aika: 21:02 (12:02 UTC)

Sääennuste

Tämä raportti tehtiin 1 tunti ja 2 minuuttia sitten, kello 11.00 UTC
Ennuste voimassa 22. päivästä klo 12 UTC - 23. päivään klo 12 UTC
Tuuli 6 kn idästä puuskistuen 16 kn:hen
Näkyvyys 10 km tai enemmän
Hajanaisia pilviä 4000 ft:n korkeudessa, Cumulonimbus.

TAF: UIAA 221100Z 2212/2312 09003G08MPS 9999 SCT040CB

Säähavainnot ja -ennusteet yli 4000 lentoasemalta (METAR- ja TAF-raportit).

Käytössä olevat sääasemat on merkitty karttaan keltaisilla ja punaisilla pisteillä.

Aseta hiiri pisteen päälle nähdäksesi sääaseman nimen.

Klikkaa sitten nähdäksesi säähavainnot ja -ennusteet.

Kartan vaihtaminen: klikkaa mustalla rastilla varustettuja vihreitä pisteitä, niin voit zoomata sisään; viivalla varustettua vihreää pistettä, niin voit zoomata ulos tai vihreitä nuolia, niin pääset viereisille kartoille.


METAR-TAF: